createdAt,value
2017-11-20T00:00:33.662Z,58.45
2017-11-20T00:01:36.139Z,58.52
2017-11-20T00:02:38.608Z,58.62
2017-11-20T00:03:41.092Z,58.65
2017-11-20T00:04:43.556Z,58.60
2017-11-20T00:05:46.050Z,58.62
2017-11-20T00:06:48.531Z,58.59
2017-11-20T00:07:51.011Z,58.46
2017-11-20T00:08:53.496Z,58.50
2017-11-20T00:09:55.979Z,58.43
2017-11-20T00:10:58.465Z,58.38
2017-11-20T00:12:00.937Z,58.58
2017-11-20T00:13:03.401Z,58.60
2017-11-20T00:14:05.878Z,58.63
2017-11-20T00:15:08.348Z,58.57
2017-11-20T00:16:10.847Z,58.34
2017-11-20T00:17:13.366Z,58.28
2017-11-20T00:18:15.828Z,58.48
2017-11-20T00:19:18.295Z,58.60
2017-11-20T00:20:20.783Z,58.55
2017-11-20T00:21:23.263Z,58.41
2017-11-20T00:22:25.738Z,58.40
2017-11-20T00:23:28.208Z,58.67
2017-11-20T00:24:30.721Z,58.96
2017-11-20T00:25:33.202Z,59.21
2017-11-20T00:26:35.715Z,58.82
2017-11-20T00:27:38.190Z,58.37
2017-11-20T00:28:40.656Z,58.33
2017-11-20T00:29:43.139Z,58.53
2017-11-20T00:30:45.604Z,58.20
2017-11-20T00:31:48.114Z,57.90
2017-11-20T00:32:50.594Z,57.79
2017-11-20T00:33:53.056Z,57.68
2017-11-20T00:34:55.528Z,57.48
2017-11-20T00:35:57.988Z,57.43
2017-11-20T00:37:00.500Z,57.12
2017-11-20T00:38:02.960Z,57.05
2017-11-20T00:39:05.420Z,57.08
2017-11-20T00:40:07.892Z,56.91
2017-11-20T00:41:10.352Z,56.87
2017-11-20T00:42:12.850Z,56.82
2017-11-20T00:43:15.308Z,56.77
2017-11-20T00:44:17.782Z,56.72
2017-11-20T00:45:20.326Z,56.73
2017-11-20T00:46:22.796Z,56.85
2017-11-20T00:47:25.305Z,56.70
2017-11-20T00:48:27.782Z,56.78
2017-11-20T00:49:30.246Z,56.77
2017-11-20T00:50:32.726Z,56.84
2017-11-20T00:51:35.216Z,56.90
2017-11-20T00:52:37.715Z,56.85
2017-11-20T00:53:40.180Z,56.82
2017-11-20T00:54:42.649Z,56.75
2017-11-20T00:55:45.112Z,56.75
2017-11-20T00:56:47.587Z,57.02
2017-11-20T00:57:50.068Z,57.00
2017-11-20T00:58:52.551Z,56.84
2017-11-20T00:59:55.015Z,56.85
2017-11-20T01:00:57.484Z,56.83
2017-11-20T01:01:59.968Z,56.96
2017-11-20T01:03:02.457Z,57.54
2017-11-20T01:04:04.921Z,58.20
2017-11-20T01:05:07.405Z,57.91
2017-11-20T01:06:09.875Z,58.40
2017-11-20T01:07:12.359Z,58.24
2017-11-20T01:08:14.847Z,58.28
2017-11-20T01:09:17.312Z,58.19
2017-11-20T01:10:19.782Z,57.74
2017-11-20T01:11:22.243Z,57.96
2017-11-20T01:12:24.713Z,58.17
2017-11-20T01:13:27.212Z,58.05
2017-11-20T01:14:29.769Z,58.25
2017-11-20T01:15:32.245Z,58.66
2017-11-20T01:16:34.707Z,58.54
2017-11-20T01:17:37.168Z,58.91
2017-11-20T01:18:39.663Z,58.88
2017-11-20T01:19:42.122Z,58.73
2017-11-20T01:20:44.599Z,58.50
2017-11-20T01:21:47.074Z,58.68
2017-11-20T01:22:49.543Z,58.66
2017-11-20T01:23:52.050Z,58.91
2017-11-20T01:24:54.516Z,58.67
2017-11-20T01:25:56.994Z,58.62
2017-11-20T01:26:59.469Z,58.64
2017-11-20T01:28:01.928Z,58.55
2017-11-20T01:29:04.432Z,58.53
2017-11-20T01:30:06.924Z,58.40
2017-11-20T01:31:09.407Z,58.28
2017-11-20T01:32:11.868Z,58.20
2017-11-20T01:33:14.328Z,58.34
2017-11-20T01:34:16.829Z,58.26
2017-11-20T01:35:19.305Z,58.20
2017-11-20T01:36:21.782Z,58.00
2017-11-20T01:37:24.240Z,57.98
2017-11-20T01:38:26.708Z,57.77
2017-11-20T01:39:29.193Z,57.57
2017-11-20T01:40:31.655Z,57.44
2017-11-20T01:41:34.138Z,57.35
2017-11-20T01:42:36.603Z,57.16
2017-11-20T01:43:39.082Z,57.10
2017-11-20T01:44:41.583Z,57.02
2017-11-20T01:45:44.063Z,57.04
2017-11-20T01:46:46.535Z,56.96
2017-11-20T01:47:49.019Z,56.83
2017-11-20T01:48:51.491Z,56.81
2017-11-20T01:49:53.993Z,56.85
2017-11-20T01:50:56.451Z,56.76
2017-11-20T01:51:58.934Z,56.80
2017-11-20T01:53:01.416Z,56.75
2017-11-20T01:54:03.898Z,56.74
2017-11-20T01:55:06.383Z,56.87
2017-11-20T01:56:08.857Z,57.00
2017-11-20T01:57:11.333Z,57.03
2017-11-20T01:58:13.792Z,57.16
2017-11-20T01:59:16.281Z,57.12
2017-11-20T02:00:18.766Z,57.21
2017-11-20T02:01:21.239Z,57.46
2017-11-20T02:02:23.714Z,57.46
2017-11-20T02:03:26.176Z,57.60
2017-11-20T02:04:28.651Z,57.47
2017-11-20T02:05:31.129Z,57.62
2017-11-20T02:06:33.602Z,57.71
2017-11-20T02:07:36.073Z,57.74
2017-11-20T02:08:38.559Z,57.58
2017-11-20T02:09:41.036Z,57.89
2017-11-20T02:10:43.514Z,58.04
2017-11-20T02:11:45.990Z,57.87
2017-11-20T02:12:48.447Z,57.70
2017-11-20T02:13:50.926Z,57.82
2017-11-20T02:14:53.443Z,58.03
2017-11-20T02:15:55.899Z,57.97
2017-11-20T02:16:58.375Z,57.99
2017-11-20T02:18:00.836Z,57.98
2017-11-20T02:19:03.297Z,57.98
2017-11-20T02:20:05.775Z,58.14
2017-11-20T02:21:08.252Z,58.06
2017-11-20T02:22:10.734Z,58.19
2017-11-20T02:23:13.196Z,58.48
2017-11-20T02:24:15.655Z,58.43
2017-11-20T02:25:18.124Z,58.46
2017-11-20T02:26:20.602Z,58.50
2017-11-20T02:27:23.080Z,58.49
2017-11-20T02:28:25.541Z,58.64
2017-11-20T02:29:28.029Z,58.70
2017-11-20T02:30:30.487Z,58.69
2017-11-20T02:31:32.970Z,58.70
2017-11-20T02:32:35.445Z,58.86
2017-11-20T02:33:37.928Z,58.87
2017-11-20T02:34:40.410Z,59.03
2017-11-20T02:35:42.920Z,59.02
2017-11-20T02:36:45.385Z,58.75
2017-11-20T02:37:47.855Z,58.69
2017-11-20T02:38:50.324Z,58.60
2017-11-20T02:39:52.809Z,58.73
2017-11-20T02:40:55.292Z,58.36
2017-11-20T02:41:57.762Z,58.31
2017-11-20T02:43:00.255Z,58.03
2017-11-20T02:44:02.738Z,57.92
2017-11-20T02:45:05.224Z,57.72
2017-11-20T02:46:07.751Z,57.75
2017-11-20T02:47:10.223Z,57.74
2017-11-20T02:48:12.689Z,57.56
2017-11-20T02:49:15.172Z,57.50
2017-11-20T02:50:17.659Z,57.43
2017-11-20T02:51:20.148Z,57.33
2017-11-20T02:52:22.631Z,57.37
2017-11-20T02:53:25.130Z,57.29
2017-11-20T02:54:27.606Z,57.50
2017-11-20T02:55:30.119Z,57.40
2017-11-20T02:56:32.607Z,57.49
2017-11-20T02:57:35.073Z,57.33
2017-11-20T02:58:37.544Z,57.35
2017-11-20T02:59:40.012Z,57.45
2017-11-20T03:00:42.514Z,57.49
2017-11-20T03:01:45.008Z,57.59
2017-11-20T03:02:47.485Z,57.57
2017-11-20T03:03:49.943Z,57.63
2017-11-20T03:04:52.418Z,57.56
2017-11-20T03:05:54.883Z,57.69
2017-11-20T03:06:57.386Z,57.70
2017-11-20T03:07:59.862Z,57.72
2017-11-20T03:09:02.325Z,57.78
2017-11-20T03:10:04.810Z,58.02
2017-11-20T03:11:07.282Z,57.83
2017-11-20T03:12:09.786Z,57.85
2017-11-20T03:13:12.277Z,58.15
2017-11-20T03:14:14.761Z,58.09
2017-11-20T03:15:17.240Z,57.91
2017-11-20T03:16:19.702Z,57.84
2017-11-20T03:17:22.198Z,57.83
2017-11-20T03:18:24.682Z,57.96
2017-11-20T03:19:27.149Z,58.10
2017-11-20T03:20:29.607Z,58.50
2017-11-20T03:21:32.083Z,58.55
2017-11-20T03:22:34.598Z,58.76
2017-11-20T03:23:37.060Z,58.93
2017-11-20T03:24:39.538Z,58.95
2017-11-20T03:25:42.018Z,58.99
2017-11-20T03:26:44.479Z,58.83
2017-11-20T03:27:46.959Z,58.86
2017-11-20T03:28:49.424Z,58.81
2017-11-20T03:29:51.906Z,58.92
2017-11-20T03:30:54.387Z,58.98
2017-11-20T03:31:56.869Z,59.24
2017-11-20T03:32:59.362Z,59.31
2017-11-20T03:34:01.928Z,59.17
2017-11-20T03:35:04.407Z,59.20
2017-11-20T03:36:06.868Z,59.10
2017-11-20T03:37:09.348Z,58.87
2017-11-20T03:38:11.851Z,59.14
2017-11-20T03:39:14.321Z,58.93
2017-11-20T03:40:16.797Z,58.90
2017-11-20T03:41:19.264Z,58.55
2017-11-20T03:42:21.742Z,58.50
2017-11-20T03:43:24.237Z,58.45
2017-11-20T03:44:26.711Z,58.34
2017-11-20T03:45:29.186Z,58.21
2017-11-20T03:46:31.658Z,57.94
2017-11-20T03:47:34.125Z,58.04
2017-11-20T03:48:36.616Z,57.82
2017-11-20T03:49:39.076Z,57.73
2017-11-20T03:50:41.555Z,57.90
2017-11-20T03:51:44.044Z,57.72
2017-11-20T03:52:46.521Z,57.71
2017-11-20T03:53:49.003Z,57.65
2017-11-20T03:54:51.483Z,57.77
2017-11-20T03:55:53.955Z,57.76
2017-11-20T03:56:56.435Z,57.66
2017-11-20T03:57:58.896Z,57.78
2017-11-20T03:59:01.405Z,57.71
2017-11-20T04:00:03.868Z,57.72
2017-11-20T04:01:06.354Z,57.92
2017-11-20T04:02:08.832Z,57.86
2017-11-20T04:03:12.125Z,57.93
2017-11-20T04:04:14.608Z,58.02
2017-11-20T04:05:17.077Z,58.13
2017-11-20T04:06:19.541Z,58.10
2017-11-20T04:07:22.013Z,58.16
2017-11-20T04:08:24.498Z,58.40
2017-11-20T04:09:26.976Z,58.41
2017-11-20T04:10:29.454Z,58.40
2017-11-20T04:11:31.930Z,58.53
2017-11-20T04:12:34.391Z,58.52
2017-11-20T04:13:36.869Z,58.45
2017-11-20T04:14:39.372Z,58.56
2017-11-20T04:15:41.832Z,58.83
2017-11-20T04:16:44.296Z,58.61
2017-11-20T04:17:46.771Z,58.76
2017-11-20T04:18:49.251Z,58.99
2017-11-20T04:19:51.750Z,58.96
2017-11-20T04:20:54.222Z,59.03
2017-11-20T04:21:56.684Z,58.96
2017-11-20T04:22:59.156Z,59.19
2017-11-20T04:24:01.679Z,58.71
2017-11-20T04:25:04.179Z,59.08
2017-11-20T04:26:06.648Z,59.08
2017-11-20T04:27:09.112Z,59.40
2017-11-20T04:28:11.590Z,59.73
2017-11-20T04:29:14.070Z,59.60
2017-11-20T04:30:16.559Z,59.63
2017-11-20T04:31:19.020Z,59.56
2017-11-20T04:32:21.502Z,59.48
2017-11-20T04:33:23.990Z,59.46
2017-11-20T04:34:26.457Z,59.71
2017-11-20T04:35:28.919Z,59.43
2017-11-20T04:36:31.385Z,59.48
2017-11-20T04:37:33.863Z,59.50
2017-11-20T04:38:36.336Z,59.46
2017-11-20T04:39:38.830Z,59.25
2017-11-20T04:40:41.312Z,59.29
2017-11-20T04:41:43.866Z,59.44
2017-11-20T04:42:46.350Z,59.21
2017-11-20T04:43:48.839Z,59.10
2017-11-20T04:44:51.315Z,59.26
2017-11-20T04:45:53.799Z,59.00
2017-11-20T04:46:56.273Z,59.01
2017-11-20T04:47:58.759Z,58.86
2017-11-20T04:49:01.228Z,58.86
2017-11-20T04:50:03.706Z,58.83
2017-11-20T04:51:06.180Z,58.85
2017-11-20T04:52:08.669Z,58.90
2017-11-20T04:53:11.132Z,58.98
2017-11-20T04:54:13.587Z,58.89
2017-11-20T04:55:16.065Z,59.01
2017-11-20T04:56:18.542Z,58.79
2017-11-20T04:57:21.327Z,58.92
2017-11-20T04:58:23.865Z,58.75
2017-11-20T04:59:26.345Z,59.00
2017-11-20T05:00:28.851Z,58.83
2017-11-20T05:01:31.389Z,58.95
2017-11-20T05:02:33.868Z,58.83
2017-11-20T05:03:36.340Z,59.32
2017-11-20T05:04:38.809Z,58.88
2017-11-20T05:05:41.282Z,58.80
2017-11-20T05:06:43.758Z,59.00
2017-11-20T05:07:46.255Z,59.34
2017-11-20T05:08:48.714Z,59.31
2017-11-20T05:09:51.209Z,59.43
2017-11-20T05:10:53.691Z,57.31
2017-11-20T05:11:56.173Z,56.68
2017-11-20T05:12:58.659Z,58.00
2017-11-20T05:14:01.143Z,57.96
2017-11-20T05:15:03.639Z,58.09
2017-11-20T05:16:06.122Z,58.02
2017-11-20T05:17:08.603Z,57.93
2017-11-20T05:18:11.085Z,57.91
2017-11-20T05:19:13.571Z,57.89
2017-11-20T05:20:16.036Z,57.98
2017-11-20T05:21:18.515Z,57.81
2017-11-20T05:22:20.992Z,57.95
2017-11-20T05:23:23.498Z,57.68
2017-11-20T05:24:25.996Z,57.70
2017-11-20T05:25:28.465Z,57.73
2017-11-20T05:26:30.942Z,57.79
2017-11-20T05:27:33.407Z,57.71
2017-11-20T05:28:35.872Z,58.03
2017-11-20T05:29:38.359Z,58.10
2017-11-20T05:30:40.839Z,58.14
2017-11-20T05:31:43.372Z,58.23
2017-11-20T05:32:45.854Z,58.28
2017-11-20T05:33:48.312Z,58.34
2017-11-20T05:34:50.791Z,58.37
2017-11-20T05:35:53.310Z,58.34
2017-11-20T05:36:55.776Z,58.33
2017-11-20T05:37:58.271Z,58.46
2017-11-20T05:39:00.753Z,58.33
2017-11-20T05:40:03.235Z,58.46
2017-11-20T05:41:05.721Z,58.59
2017-11-20T05:42:08.257Z,58.73
2017-11-20T05:43:10.735Z,58.72
2017-11-20T05:44:13.205Z,58.70
2017-11-20T05:45:15.665Z,58.93
2017-11-20T05:46:18.145Z,58.88
2017-11-20T05:47:20.612Z,58.75
2017-11-20T05:48:23.136Z,58.50
2017-11-20T05:49:25.591Z,57.50
2017-11-20T05:50:28.063Z,56.09
2017-11-20T05:51:30.539Z,55.40
2017-11-20T05:52:33.021Z,55.41
2017-11-20T05:53:35.501Z,55.23
2017-11-20T05:54:37.982Z,55.29
2017-11-20T05:55:40.467Z,55.01
2017-11-20T05:56:42.942Z,55.35
2017-11-20T05:57:45.419Z,55.91
2017-11-20T05:58:47.885Z,56.18
2017-11-20T05:59:50.361Z,56.38
2017-11-20T06:00:52.821Z,56.49
2017-11-20T06:01:55.281Z,56.62
2017-11-20T06:02:57.748Z,56.76
2017-11-20T06:04:00.208Z,56.91
2017-11-20T06:05:02.690Z,56.94
2017-11-20T06:06:05.165Z,57.06
2017-11-20T06:07:07.957Z,57.11
2017-11-20T06:08:10.493Z,57.28
2017-11-20T06:09:12.970Z,57.28
2017-11-20T06:10:15.433Z,57.30
2017-11-20T06:11:17.891Z,57.26
2017-11-20T06:12:20.377Z,57.32
2017-11-20T06:13:22.899Z,57.42
2017-11-20T06:14:25.382Z,57.43
2017-11-20T06:15:27.870Z,57.27
2017-11-20T06:16:30.350Z,57.17
2017-11-20T06:17:32.835Z,57.01
2017-11-20T06:18:35.316Z,56.81
2017-11-20T06:19:37.802Z,56.78
2017-11-20T06:20:40.321Z,56.65
2017-11-20T06:21:42.783Z,56.64
2017-11-20T06:22:45.259Z,56.57
2017-11-20T06:23:47.752Z,56.63
2017-11-20T06:24:50.234Z,56.61
2017-11-20T06:25:52.699Z,56.47
2017-11-20T06:26:55.261Z,56.52
2017-11-20T06:27:57.767Z,56.48
2017-11-20T06:29:00.268Z,56.56
2017-11-20T06:30:02.731Z,56.57
2017-11-20T06:31:05.196Z,56.61
2017-11-20T06:32:07.678Z,56.64
2017-11-20T06:33:10.144Z,56.59
2017-11-20T06:34:12.628Z,56.74
2017-11-20T06:35:15.106Z,56.91
2017-11-20T06:36:17.582Z,56.72
2017-11-20T06:37:20.302Z,56.06
2017-11-20T06:38:22.764Z,55.28
2017-11-20T06:39:25.272Z,54.84
2017-11-20T06:40:27.732Z,54.39
2017-11-20T06:41:30.206Z,54.31
2017-11-20T06:42:32.677Z,54.18
2017-11-20T06:43:35.187Z,54.11
2017-11-20T06:44:37.672Z,54.17
2017-11-20T06:45:40.146Z,54.12
2017-11-20T06:46:42.618Z,54.07
2017-11-20T06:47:45.139Z,53.91
2017-11-20T06:48:47.627Z,53.80
2017-11-20T06:49:50.134Z,53.73
2017-11-20T06:50:52.596Z,53.62
2017-11-20T06:51:55.062Z,53.58
2017-11-20T06:52:57.534Z,53.42
2017-11-20T06:53:59.992Z,53.41
2017-11-20T06:55:02.481Z,53.36
2017-11-20T06:56:04.945Z,53.24
2017-11-20T06:57:07.421Z,52.81
2017-11-20T06:58:09.952Z,52.77
2017-11-20T06:59:12.432Z,52.42
2017-11-20T07:00:14.919Z,52.04
2017-11-20T07:01:17.500Z,51.66
2017-11-20T07:02:19.986Z,51.77
2017-11-20T07:03:22.462Z,52.01
2017-11-20T07:04:24.949Z,52.12
2017-11-20T07:05:27.439Z,51.16
2017-11-20T07:06:29.913Z,51.34
2017-11-20T07:07:32.396Z,49.96
2017-11-20T07:08:34.859Z,50.02
2017-11-20T07:09:37.346Z,49.01
2017-11-20T07:10:39.829Z,49.99
2017-11-20T07:11:42.295Z,50.62
2017-11-20T07:12:44.755Z,50.53
2017-11-20T07:13:47.237Z,50.32
2017-11-20T07:14:49.765Z,50.26
2017-11-20T07:15:52.420Z,50.17
2017-11-20T07:16:54.911Z,50.13
2017-11-20T07:17:57.398Z,50.10
2017-11-20T07:18:59.869Z,49.88
2017-11-20T07:20:02.349Z,49.75
2017-11-20T07:21:04.914Z,49.51
2017-11-20T07:22:07.471Z,49.74
2017-11-20T07:23:09.966Z,49.66
2017-11-20T07:24:12.432Z,49.70
2017-11-20T07:25:26.905Z,49.74
2017-11-20T07:26:41.000Z,51.06
2017-11-20T07:27:55.126Z,51.41
2017-11-20T07:29:09.299Z,51.58
2017-11-20T07:30:32.501Z,51.89
2017-11-20T07:31:35.011Z,52.05
2017-11-20T07:32:37.489Z,52.35
2017-11-20T07:33:51.809Z,52.31
2017-11-20T07:34:57.052Z,52.31
2017-11-20T07:36:11.467Z,52.13
2017-11-20T07:37:25.785Z,52.58
2017-11-20T07:40:16.778Z,52.21
2017-11-20T07:41:30.890Z,52.31
2017-11-20T07:42:33.378Z,52.21
2017-11-20T07:43:35.867Z,51.89
2017-11-20T07:44:38.358Z,51.64
2017-11-20T07:45:40.873Z,51.53
2017-11-20T07:46:43.370Z,51.40
2017-11-20T07:47:45.849Z,51.33
2017-11-20T07:48:48.316Z,51.19
2017-11-20T07:49:50.801Z,51.13
2017-11-20T07:50:53.277Z,51.08
2017-11-20T07:51:55.782Z,51.00
2017-11-20T07:52:58.263Z,50.95
2017-11-20T07:54:00.738Z,50.95
2017-11-20T07:55:03.213Z,50.86
2017-11-20T07:56:05.695Z,50.88
2017-11-20T07:57:08.201Z,50.87
2017-11-20T07:58:10.678Z,50.88
2017-11-20T07:59:13.141Z,50.87
2017-11-20T08:00:15.621Z,50.89
2017-11-20T08:01:18.107Z,50.89
2017-11-20T08:02:20.611Z,50.88
2017-11-20T08:03:23.084Z,50.89
2017-11-20T08:04:25.563Z,50.91
2017-11-20T08:05:28.031Z,50.93
2017-11-20T08:06:30.502Z,50.94
2017-11-20T08:07:33.009Z,50.94
2017-11-20T08:08:35.472Z,50.92
2017-11-20T08:09:37.932Z,51.01
2017-11-20T08:10:40.406Z,51.02
2017-11-20T08:11:42.891Z,51.00
2017-11-20T08:12:45.379Z,51.02
2017-11-20T08:13:47.848Z,51.07
2017-11-20T08:14:50.312Z,51.07
2017-11-20T08:15:52.789Z,51.04
2017-11-20T08:16:55.261Z,51.01
2017-11-20T08:17:57.758Z,51.04
2017-11-20T08:19:00.238Z,51.06
2017-11-20T08:20:02.704Z,51.05
2017-11-20T08:21:05.175Z,51.09
2017-11-20T08:22:07.649Z,51.08
2017-11-20T08:23:10.146Z,51.08
2017-11-20T08:24:12.612Z,51.10
2017-11-20T08:25:15.072Z,51.14
2017-11-20T08:26:17.541Z,51.17
2017-11-20T08:27:20.004Z,51.21
2017-11-20T08:28:22.505Z,51.22
2017-11-20T08:29:24.973Z,51.22
2017-11-20T08:30:27.448Z,51.23
2017-11-20T08:31:29.920Z,51.23
2017-11-20T08:32:32.403Z,51.26
2017-11-20T08:33:34.936Z,51.27
2017-11-20T08:34:37.396Z,51.22
2017-11-20T08:35:39.870Z,51.30
2017-11-20T08:36:42.355Z,51.33
2017-11-20T08:37:44.842Z,51.36
2017-11-20T08:38:47.392Z,51.29
2017-11-20T08:39:49.855Z,51.38
2017-11-20T08:40:52.322Z,51.42
2017-11-20T08:41:54.798Z,51.40
2017-11-20T08:42:57.277Z,51.42
2017-11-20T08:43:59.770Z,51.44
2017-11-20T08:45:02.254Z,51.49
2017-11-20T08:46:04.723Z,51.50
2017-11-20T08:47:07.211Z,51.51
2017-11-20T08:48:09.685Z,51.54
2017-11-20T08:49:12.186Z,51.58
2017-11-20T08:50:14.658Z,51.63
2017-11-20T08:51:17.138Z,51.61
2017-11-20T08:52:19.648Z,51.67
2017-11-20T08:53:22.201Z,51.67
2017-11-20T08:54:24.703Z,51.70
2017-11-20T08:55:27.178Z,51.72
2017-11-20T08:56:29.644Z,51.75
2017-11-20T08:57:32.169Z,51.79
2017-11-20T08:58:34.646Z,51.82
2017-11-20T08:59:37.148Z,51.85
2017-11-20T09:00:39.672Z,51.86
2017-11-20T09:01:42.137Z,51.88
2017-11-20T09:02:44.600Z,51.92
2017-11-20T09:03:47.069Z,51.91
2017-11-20T09:04:49.575Z,51.95
2017-11-20T09:05:58.837Z,51.96
2017-11-20T09:07:01.325Z,51.96
2017-11-20T09:08:03.807Z,52.00
2017-11-20T09:09:06.284Z,52.01
2017-11-20T09:10:08.781Z,52.05
2017-11-20T09:11:11.267Z,52.06
2017-11-20T09:12:13.743Z,52.07
2017-11-20T09:13:16.211Z,52.07
2017-11-20T09:14:18.694Z,52.06
2017-11-20T09:15:21.199Z,52.09
2017-11-20T09:16:23.680Z,52.10
2017-11-20T09:17:26.161Z,52.13
2017-11-20T09:18:28.655Z,52.13
2017-11-20T09:19:31.145Z,52.14
2017-11-20T09:20:33.641Z,52.16
2017-11-20T09:21:36.105Z,52.16
2017-11-20T09:22:38.582Z,52.16
2017-11-20T09:23:41.066Z,52.18
2017-11-20T09:24:43.532Z,52.17
2017-11-20T09:25:46.016Z,52.17
2017-11-20T09:26:48.493Z,52.18
2017-11-20T09:27:50.964Z,52.18
2017-11-20T09:28:53.438Z,52.18
2017-11-20T09:29:56.005Z,52.19
2017-11-20T09:30:58.501Z,52.21
2017-11-20T09:32:00.960Z,52.21
2017-11-20T09:33:03.508Z,52.22
2017-11-20T09:34:05.971Z,52.25
2017-11-20T09:35:08.447Z,52.28
2017-11-20T09:36:10.928Z,52.29
2017-11-20T09:37:13.384Z,52.32
2017-11-20T09:38:15.844Z,52.35
2017-11-20T09:39:18.303Z,52.36
2017-11-20T09:40:20.760Z,52.32
2017-11-20T09:41:23.279Z,52.31
2017-11-20T09:42:25.763Z,52.25
2017-11-20T09:43:28.225Z,52.26
2017-11-20T09:44:30.707Z,52.27
2017-11-20T09:45:33.185Z,52.27
2017-11-20T09:46:35.678Z,52.25
2017-11-20T09:47:38.153Z,52.24
2017-11-20T09:48:40.630Z,52.23
2017-11-20T09:49:43.105Z,52.23
2017-11-20T09:50:45.568Z,52.21
2017-11-20T09:51:48.057Z,52.16
2017-11-20T09:52:50.519Z,52.17
2017-11-20T09:53:53.024Z,52.16
2017-11-20T09:54:55.493Z,52.16
2017-11-20T09:55:57.976Z,52.19
2017-11-20T09:57:00.464Z,52.17
2017-11-20T09:58:02.944Z,52.19
2017-11-20T09:59:05.413Z,52.19
2017-11-20T10:00:07.895Z,52.21
2017-11-20T10:01:10.380Z,52.21
2017-11-20T10:02:12.885Z,52.27
2017-11-20T10:03:15.379Z,52.33
2017-11-20T10:04:17.856Z,52.36
2017-11-20T10:05:20.316Z,52.37
2017-11-20T10:06:22.817Z,52.37
2017-11-20T10:07:25.308Z,52.31
2017-11-20T10:08:27.803Z,52.29
2017-11-20T10:09:30.283Z,52.26
2017-11-20T10:10:32.748Z,52.20
2017-11-20T10:11:35.226Z,52.13
2017-11-20T10:12:37.708Z,52.08
2017-11-20T10:13:40.196Z,52.07
2017-11-20T10:14:42.668Z,52.02
2017-11-20T10:15:45.146Z,52.00
2017-11-20T10:16:47.607Z,52.02
2017-11-20T10:17:50.110Z,51.98
2017-11-20T10:18:52.577Z,51.99
2017-11-20T10:19:55.054Z,52.02
2017-11-20T10:20:57.533Z,52.06
2017-11-20T10:22:00.184Z,52.07
2017-11-20T10:23:02.826Z,52.04
2017-11-20T10:24:05.310Z,52.05
2017-11-20T10:25:07.772Z,52.07
2017-11-20T10:26:10.237Z,52.12
2017-11-20T10:27:12.709Z,52.13
2017-11-20T10:28:15.210Z,52.13
2017-11-20T10:29:17.682Z,52.14
2017-11-20T10:30:20.152Z,52.15
2017-11-20T10:31:22.630Z,52.16
2017-11-20T10:32:25.087Z,52.17
2017-11-20T10:33:27.586Z,52.18
2017-11-20T10:34:30.049Z,52.21
2017-11-20T10:35:32.523Z,52.22
2017-11-20T10:36:35.003Z,52.20
2017-11-20T10:37:37.468Z,52.21
2017-11-20T10:38:39.967Z,52.21
2017-11-20T10:39:42.423Z,52.20
2017-11-20T10:40:44.892Z,52.21
2017-11-20T10:41:47.371Z,52.19
2017-11-20T10:42:49.843Z,52.20
2017-11-20T10:43:52.332Z,52.22
2017-11-20T10:44:54.806Z,52.22
2017-11-20T10:45:57.267Z,52.24
2017-11-20T10:46:59.755Z,52.22
2017-11-20T10:48:02.234Z,52.22
2017-11-20T10:49:04.716Z,52.22
2017-11-20T10:50:07.198Z,52.24
2017-11-20T10:51:09.697Z,52.27
2017-11-20T10:52:12.221Z,52.23
2017-11-20T10:53:14.697Z,52.25
2017-11-20T10:54:17.176Z,52.27
2017-11-20T10:55:19.686Z,52.26
2017-11-20T10:56:22.148Z,52.26
2017-11-20T10:57:24.625Z,52.29
2017-11-20T10:58:27.098Z,52.27
2017-11-20T10:59:29.601Z,52.27
2017-11-20T11:00:32.068Z,52.28
2017-11-20T11:01:34.550Z,52.35
2017-11-20T11:02:37.027Z,52.37
2017-11-20T11:03:39.493Z,52.40
2017-11-20T11:04:41.971Z,52.43
2017-11-20T11:05:44.432Z,52.49
2017-11-20T11:06:46.903Z,52.51
2017-11-20T11:07:49.369Z,52.55
2017-11-20T11:08:51.846Z,52.48
2017-11-20T11:09:54.339Z,52.38
2017-11-20T11:10:56.836Z,52.08
2017-11-20T11:11:59.309Z,51.87
2017-11-20T11:13:01.772Z,51.60
2017-11-20T11:14:04.236Z,51.18
2017-11-20T11:15:06.725Z,50.65
2017-11-20T11:16:09.209Z,50.28
2017-11-20T11:17:12.163Z,50.04
2017-11-20T11:18:14.659Z,49.96
2017-11-20T11:19:17.132Z,49.63
2017-11-20T11:20:19.634Z,49.35
2017-11-20T11:21:22.115Z,49.32
2017-11-20T11:22:24.594Z,49.17
2017-11-20T11:23:27.065Z,49.16
2017-11-20T11:24:29.538Z,49.22
2017-11-20T11:25:32.046Z,49.18
2017-11-20T11:26:34.533Z,49.15
2017-11-20T11:27:37.025Z,49.14
2017-11-20T11:28:39.750Z,49.07
2017-11-20T11:29:42.477Z,49.02
2017-11-20T11:30:44.945Z,48.91
2017-11-20T11:31:47.436Z,48.66
2017-11-20T11:32:49.913Z,48.50
2017-11-20T11:33:52.382Z,48.33
2017-11-20T11:34:54.843Z,48.30
2017-11-20T11:35:57.327Z,48.17
2017-11-20T11:36:59.796Z,48.18
2017-11-20T11:38:02.279Z,48.16
2017-11-20T11:39:04.797Z,48.14
2017-11-20T11:40:07.300Z,48.23
2017-11-20T11:41:09.768Z,48.23
2017-11-20T11:42:12.244Z,48.30
2017-11-20T11:43:14.723Z,48.29
2017-11-20T11:44:17.188Z,48.34
2017-11-20T11:45:19.648Z,48.39
2017-11-20T11:46:22.124Z,48.40
2017-11-20T11:47:24.584Z,48.47
2017-11-20T11:48:27.078Z,48.50
2017-11-20T11:49:29.544Z,48.53
2017-11-20T11:50:32.039Z,48.58
2017-11-20T11:51:34.559Z,48.63
2017-11-20T11:52:37.053Z,48.71
2017-11-20T11:53:39.526Z,48.77
2017-11-20T11:54:41.998Z,48.84
2017-11-20T11:55:44.471Z,48.87
2017-11-20T11:56:46.946Z,48.87
2017-11-20T11:57:49.430Z,48.89
2017-11-20T11:58:51.892Z,48.81
2017-11-20T11:59:54.353Z,48.63
2017-11-20T12:00:56.815Z,48.50
2017-11-20T12:01:59.276Z,48.42
2017-11-20T12:03:01.771Z,48.39
2017-11-20T12:04:04.258Z,48.30
2017-11-20T12:05:06.740Z,48.25
2017-11-20T12:06:09.219Z,48.22
2017-11-20T12:07:11.688Z,48.19
2017-11-20T12:08:14.152Z,48.27
2017-11-20T12:09:16.631Z,48.29
2017-11-20T12:10:19.109Z,48.31
2017-11-20T12:11:21.582Z,48.37
2017-11-20T12:12:24.082Z,48.41
2017-11-20T12:13:26.572Z,48.48
2017-11-20T12:14:29.056Z,48.54
2017-11-20T12:15:31.523Z,48.59
2017-11-20T12:16:33.996Z,48.62
2017-11-20T12:17:36.465Z,48.71
2017-11-20T12:18:39.159Z,48.78
2017-11-20T12:19:41.643Z,48.86
2017-11-20T12:20:44.100Z,48.90
2017-11-20T12:21:46.561Z,48.95
2017-11-20T12:22:49.057Z,49.02
2017-11-20T12:23:51.533Z,49.10
2017-11-20T12:24:54.025Z,49.19
2017-11-20T12:25:56.485Z,49.24
2017-11-20T12:26:58.955Z,49.30
2017-11-20T12:28:01.589Z,49.36
2017-11-20T12:29:04.081Z,49.44
2017-11-20T12:30:06.589Z,49.50
2017-11-20T12:31:09.070Z,49.55
2017-11-20T12:32:11.544Z,49.63
2017-11-20T12:33:14.030Z,49.67
2017-11-20T12:34:16.527Z,49.72
2017-11-20T12:35:19.011Z,49.76
2017-11-20T12:36:21.493Z,49.80
2017-11-20T12:37:23.960Z,49.85
2017-11-20T12:38:26.458Z,49.71
2017-11-20T12:39:28.932Z,49.61
2017-11-20T12:40:31.415Z,49.47
2017-11-20T12:41:33.900Z,49.35
2017-11-20T12:42:36.382Z,49.23
2017-11-20T12:43:38.878Z,49.17
2017-11-20T12:44:41.345Z,49.07
2017-11-20T12:45:43.804Z,48.99
2017-11-20T12:46:46.269Z,48.92
2017-11-20T12:47:48.753Z,48.85
2017-11-20T12:48:51.308Z,48.88
2017-11-20T12:49:53.768Z,48.89
2017-11-20T12:50:56.262Z,48.87
2017-11-20T12:51:58.721Z,48.91
2017-11-20T12:53:01.188Z,48.96
2017-11-20T12:54:03.689Z,49.03
2017-11-20T12:55:06.153Z,49.06
2017-11-20T12:56:08.630Z,49.08
2017-11-20T12:57:11.087Z,49.12
2017-11-20T12:58:13.556Z,49.18
2017-11-20T12:59:16.064Z,49.21
2017-11-20T13:00:18.533Z,49.28
2017-11-20T13:01:21.002Z,49.32
2017-11-20T13:02:23.478Z,49.37
2017-11-20T13:03:25.940Z,49.42
2017-11-20T13:04:28.444Z,49.47
2017-11-20T13:05:30.921Z,49.51
2017-11-20T13:06:33.401Z,49.57
2017-11-20T13:07:35.890Z,49.62
2017-11-20T13:08:38.369Z,49.66
2017-11-20T13:09:40.848Z,49.75
2017-11-20T13:10:43.332Z,49.80
2017-11-20T13:11:45.795Z,49.85
2017-11-20T13:12:48.275Z,49.90
2017-11-20T13:13:50.762Z,49.94
2017-11-20T13:14:53.258Z,49.97
2017-11-20T13:15:55.742Z,50.01
2017-11-20T13:16:58.203Z,50.05
2017-11-20T13:18:00.742Z,50.09
2017-11-20T13:19:03.221Z,50.20
2017-11-20T13:20:05.718Z,50.09
2017-11-20T13:21:08.202Z,49.90
2017-11-20T13:22:10.717Z,49.79
2017-11-20T13:23:13.232Z,49.64
2017-11-20T13:24:15.717Z,49.55
2017-11-20T13:25:18.221Z,49.41
2017-11-20T13:26:20.804Z,49.31
2017-11-20T13:27:23.282Z,49.26
2017-11-20T13:28:25.745Z,49.23